Weather at McCarran International Airport

Public forecast

Using degrees Fahrenheit for public forecast. Weather courtesy of forecast.io.

Current aviation weather report (METAR) for McCarran International Airport

Retrieved 2021/10/26 07:56 UTC (47 minutes ago):

KLAS 260756Z 00000KT 10SM FEW110 BKN140 12/04 A2984 RMK AO2 SLP091 T01220039 402610122

Aviation forecast (TAF) for McCarran International Airport

Forecast is more than 6 hours old.

Retrieved 2021-10-26 00:40 UTC (8 hours ago):

TAF KLAS 252338Z 2600/2706 22020G30KT P6SM VCSH SCT060 BKN080 TEMPO 2600/2604 22012G22KT P6SM -SHRA BKN040 FM260400 22012G22KT P6SM FEW060 BKN100 FM260700 25010KT P6SM SCT080 FM261700 34011KT P6SM SCT120 FM270200 27006KT P6SM SKC